Time;durP1;ratioP1;P1;durP2;ratioP2;P2;SDS_P1;SDS_P2;PMS_P1;PMS_P2;Temp;Humidity;BMP_temperature;BMP_pressure;BME280_temperature;BME280_humidity;BME280_pressure;Samples;Min_cycle;Max_cycle;Signal;HPM_P1;HPM_P2
2021/01/19 00:01:36;;;;;;;32.00;13.00;;;;;;;-2.53;54.22;100656.41;5022303;28;20061;-62
2021/01/19 00:04:01;;;;;;;30.47;13.57;;;;;;;-2.53;54.53;100659.00;5023384;28;20080;-66
2021/01/19 00:06:27;;;;;;;31.10;14.00;;;;;;;-2.48;54.03;100657.09;5023221;28;20345;-62
2021/01/19 00:08:52;;;;;;;30.63;12.93;;;;;;;-2.45;54.53;100652.63;5022967;28;20041;-62
2021/01/19 00:11:18;;;;;;;31.20;13.13;;;;;;;-2.55;54.56;100661.66;5022969;28;20129;-66
2021/01/19 00:13:43;;;;;;;31.97;13.17;;;;;;;-2.54;55.34;100654.72;5023346;28;20246;-65
2021/01/19 00:16:08;;;;;;;32.53;13.23;;;;;;;-2.53;55.38;100662.44;5022880;28;20267;-65
2021/01/19 00:18:34;;;;;;;30.03;13.03;;;;;;;-2.23;54.19;100667.38;5022785;28;20367;-62
2021/01/19 00:20:59;;;;;;;26.37;13.17;;;;;;;-2.31;54.31;100675.47;5022791;28;20038;-62
2021/01/19 00:23:25;;;;;;;31.33;13.47;;;;;;;-2.31;54.42;100673.72;5023067;28;20088;-66
2021/01/19 00:25:50;;;;;;;29.63;12.77;;;;;;;-2.31;54.13;100678.06;5022688;28;20033;-62
2021/01/19 00:28:16;;;;;;;29.30;13.37;;;;;;;-2.42;54.82;100680.19;5023078;28;20030;-65
2021/01/19 00:30:42;;;;;;;30.70;13.20;;;;;;;-2.15;53.90;100692.13;5022787;28;20025;-66
2021/01/19 00:33:11;;;;;;;27.67;13.00;;;;;;;-2.49;54.68;100694.31;5022944;28;20057;-62
2021/01/19 00:35:40;;;;;;;30.87;13.13;;;;;;;-2.22;54.64;100695.00;5023002;28;20022;-62
2021/01/19 00:38:06;;;;;;;33.20;14.10;;;;;;;-2.45;54.67;100698.47;5023004;28;20057;-62
2021/01/19 00:40:32;;;;;;;31.00;14.63;;;;;;;-2.42;54.22;100696.59;5022576;28;20033;-66
2021/01/19 00:42:58;;;;;;;28.43;13.33;;;;;;;-2.57;53.66;100702.34;5022716;28;20088;-65
2021/01/19 00:45:23;;;;;;;29.43;13.07;;;;;;;-2.57;53.20;100704.94;5022632;28;20029;-65
2021/01/19 00:47:49;;;;;;;31.70;13.97;;;;;;;-2.62;53.41;100705.13;5022930;28;20033;-66
2021/01/19 00:50:14;;;;;;;31.73;13.37;;;;;;;-2.46;52.47;100689.84;5022397;28;20232;-62
2021/01/19 00:52:40;;;;;;;28.73;13.10;;;;;;;-2.43;53.33;100699.25;5022452;28;20026;-62
2021/01/19 00:55:08;;;;;;;37.63;15.17;;;;;;;-2.30;52.75;100706.53;5021415;28;20034;-63
2021/01/19 00:57:33;;;;;;;36.87;14.27;;;;;;;-2.15;51.42;100699.06;5022556;28;20033;-65
2021/01/19 00:59:59;;;;;;;35.07;16.23;;;;;;;-2.17;52.08;100693.94;5022501;28;20033;-62
2021/01/19 01:02:24;;;;;;;29.73;13.87;;;;;;;-2.13;51.60;100710.22;5025588;28;20022;-65
2021/01/19 01:04:50;;;;;;;32.17;14.17;;;;;;;-2.33;51.74;100716.16;5026714;28;20045;-62
2021/01/19 01:07:15;;;;;;;29.60;12.77;;;;;;;-2.25;52.03;100709.78;5026452;28;20030;-62
2021/01/19 01:09:40;;;;;;;34.90;13.93;;;;;;;-2.53;52.56;100711.72;5026316;28;20038;-62
2021/01/19 01:12:07;;;;;;;30.10;13.97;;;;;;;-2.27;52.21;100713.34;5026376;28;20025;-62
2021/01/19 01:14:33;;;;;;;30.67;13.43;;;;;;;-1.99;51.19;100706.25;5026482;28;20247;-66
2021/01/19 01:16:59;;;;;;;32.93;15.17;;;;;;;-2.10;51.93;100702.34;5026185;28;20052;-66
2021/01/19 01:19:25;;;;;;;33.40;14.17;;;;;;;-2.12;51.38;100704.13;5025779;28;20042;-66
2021/01/19 01:21:50;;;;;;;31.27;13.50;;;;;;;-2.06;51.49;100712.56;5025992;28;20022;-62
2021/01/19 01:24:16;;;;;;;31.77;14.40;;;;;;;-2.07;52.16;100708.28;5026273;28;20060;-65
2021/01/19 01:26:41;;;;;;;31.33;14.37;;;;;;;-2.00;51.42;100711.47;5025964;28;20029;-62
2021/01/19 01:29:07;;;;;;;37.03;14.80;;;;;;;-1.80;51.22;100718.50;5026288;28;20223;-65
2021/01/19 01:31:34;;;;;;;34.57;14.13;;;;;;;-2.07;51.88;100708.28;5025873;28;20041;-65
2021/01/19 01:33:59;;;;;;;37.93;14.57;;;;;;;-2.16;52.28;100710.34;5026011;28;20204;-62
2021/01/19 01:36:25;;;;;;;31.10;13.70;;;;;;;-2.14;52.15;100708.53;5025776;28;20021;-62
2021/01/19 01:38:50;;;;;;;36.57;14.83;;;;;;;-2.03;51.16;100712.44;5026129;28;20073;-65
2021/01/19 01:41:18;;;;;;;30.10;13.67;;;;;;;-2.08;51.65;100709.19;5025489;28;20018;-62
2021/01/19 01:43:44;;;;;;;32.07;14.20;;;;;;;-2.15;51.93;100704.25;5026042;28;20101;-62
2021/01/19 01:46:14;;;;;;;31.03;13.63;;;;;;;-2.13;52.60;100699.84;5025394;28;20242;-66
2021/01/19 01:48:41;;;;;;;32.43;14.73;;;;;;;-2.28;52.44;100694.34;5025900;28;20044;-65
2021/01/19 01:51:11;;;;;;;29.83;13.33;;;;;;;-2.31;52.58;100689.28;5025235;28;20029;-66
2021/01/19 01:53:37;;;;;;;31.60;13.93;;;;;;;-2.10;51.23;100685.00;5025640;28;20037;-62
2021/01/19 01:56:05;;;;;;;32.80;14.37;;;;;;;-2.24;52.22;100684.69;5025257;28;20370;-66
2021/01/19 01:58:31;;;;;;;30.13;13.43;;;;;;;-2.26;51.40;100691.69;5024258;28;20316;-65
2021/01/19 02:00:56;;;;;;;28.40;13.13;;;;;;;-2.23;52.05;100685.53;5025278;28;20033;-65
2021/01/19 02:03:22;;;;;;;33.97;15.00;;;;;;;-2.30;51.94;100680.59;5024165;28;20084;-62
2021/01/19 02:05:47;;;;;;;33.27;13.50;;;;;;;-2.11;51.32;100685.06;5025211;28;20053;-62
2021/01/19 02:08:23;;;;;;;32.80;13.60;;;;;;;-2.31;51.16;100681.50;5025075;28;20025;-65
2021/01/19 02:11:33;;;;;;;27.73;12.17;;;;;;;-2.50;51.10;100690.00;5025060;28;20030;-65
2021/01/19 02:14:05;;;;;;;28.07;12.90;;;;;;;-2.44;51.71;100676.81;5024671;28;20161;-62
2021/01/19 02:16:30;;;;;;;34.13;14.80;;;;;;;-2.23;50.62;100677.75;5024920;28;20052;-65
2021/01/19 02:18:56;;;;;;;31.17;13.87;;;;;;;-2.19;50.83;100671.56;5024933;28;20069;-65
2021/01/19 02:21:42;;;;;;;31.03;13.50;;;;;;;-2.33;51.77;100675.50;5024699;28;20025;-65
2021/01/19 02:24:31;;;;;;;35.03;15.33;;;;;;;-2.30;51.76;100674.56;5025133;28;20041;-62
2021/01/19 02:26:59;;;;;;;34.17;15.17;;;;;;;-2.21;51.96;100678.53;5025152;28;20028;-65
2021/01/19 02:29:46;;;;;;;36.63;16.47;;;;;;;-2.19;51.51;100668.94;5025032;28;20034;-62
2021/01/19 02:32:33;;;;;;;37.97;16.70;;;;;;;-2.08;50.92;100675.44;5024798;28;20030;-62
2021/01/19 02:35:17;;;;;;;44.57;19.33;;;;;;;-2.21;51.03;100669.00;5024931;28;20208;-66
2021/01/19 02:38:24;;;;;;;38.38;17.77;;;;;;;-2.14;51.41;100665.28;5024695;28;20084;-62
2021/01/19 02:40:54;;;;;;;37.07;15.83;;;;;;;-1.87;50.69;100668.56;5024494;28;20337;-62
2021/01/19 02:43:23;;;;;;;37.27;16.33;;;;;;;-1.88;50.56;100669.47;5025031;28;20044;-65
2021/01/19 02:45:50;;;;;;;36.53;15.50;;;;;;;-1.86;50.29;100661.63;5024642;28;20018;-62
2021/01/19 02:48:16;;;;;;;33.33;15.10;;;;;;;-2.16;51.17;100656.72;5024702;28;20105;-65
2021/01/19 02:50:42;;;;;;;34.70;15.23;;;;;;;-2.09;51.01;100673.72;5024426;28;20018;-65
2021/01/19 02:53:09;;;;;;;34.00;14.90;;;;;;;-2.07;50.55;100673.69;5024545;28;20026;-66
2021/01/19 02:55:35;;;;;;;31.20;14.80;;;;;;;-1.81;50.76;100673.50;5024151;28;20087;-65
2021/01/19 02:58:03;;;;;;;30.43;14.53;;;;;;;-1.98;50.46;100669.00;5024328;28;20038;-65
2021/01/19 03:00:55;;;;;;;33.67;14.00;;;;;;;-2.14;51.54;100670.47;5024212;28;20033;-65
2021/01/19 03:03:22;;;;;;;44.80;17.90;;;;;;;-2.22;51.89;100663.88;5023942;28;20255;-62
2021/01/19 03:05:49;;;;;;;53.10;19.67;;;;;;;-2.21;51.81;100668.16;5024376;28;20024;-65
2021/01/19 03:08:18;;;;;;;41.27;17.93;;;;;;;-2.30;51.72;100664.19;5023924;28;20097;-62
2021/01/19 03:10:45;;;;;;;43.47;19.20;;;;;;;-2.07;51.38;100668.50;5023991;28;20025;-62
2021/01/19 03:13:12;;;;;;;40.40;18.40;;;;;;;-2.08;51.29;100661.59;5024110;28;20037;-62
2021/01/19 03:15:38;;;;;;;35.47;16.30;;;;;;;-2.20;51.31;100667.25;5023803;28;20030;-62
2021/01/19 03:18:05;;;;;;;36.80;16.77;;;;;;;-2.14;51.27;100662.69;5023793;28;20044;-65
2021/01/19 03:20:30;;;;;;;37.43;16.33;;;;;;;-2.31;51.58;100665.06;5023684;28;20088;-62
2021/01/19 03:22:56;;;;;;;35.90;16.17;;;;;;;-2.13;51.12;100672.16;5023924;28;20046;-65
2021/01/19 03:25:21;;;;;;;34.37;16.07;;;;;;;-2.10;50.72;100671.19;5021851;28;20197;-66
2021/01/19 03:27:47;;;;;;;43.17;15.37;;;;;;;-2.22;51.17;100676.84;5023660;28;20030;-62
2021/01/19 03:30:12;;;;;;;35.50;16.87;;;;;;;-2.11;50.71;100672.09;5023752;28;20060;-65
2021/01/19 03:32:38;;;;;;;36.63;16.60;;;;;;;-2.49;51.98;100656.25;5023645;28;20034;-65
2021/01/19 03:35:05;;;;;;;34.60;15.73;;;;;;;-2.47;52.26;100672.59;5023552;28;20223;-66
2021/01/19 03:37:30;;;;;;;31.20;14.70;;;;;;;-2.26;51.46;100676.97;5022405;28;20037;-65
2021/01/19 03:39:56;;;;;;;30.83;14.87;;;;;;;-1.99;51.07;100676.84;5023919;28;20037;-62
2021/01/19 03:42:21;;;;;;;33.07;13.93;;;;;;;-2.10;50.90;100682.41;5023727;28;20085;-62
2021/01/19 03:44:47;;;;;;;29.57;13.37;;;;;;;-2.36;52.17;100682.56;5023727;28;20195;-62
2021/01/19 03:47:12;;;;;;;27.03;12.57;;;;;;;-2.22;51.85;100687.22;5023444;28;20064;-62
2021/01/19 03:49:38;;;;;;;24.67;11.20;;;;;;;-2.24;51.15;100684.69;5023575;28;20038;-65
2021/01/19 03:52:03;;;;;;;30.20;12.33;;;;;;;-2.42;51.67;100699.19;5023329;28;20041;-66
2021/01/19 03:54:29;;;;;;;26.17;12.20;;;;;;;-2.35;51.83;100698.06;5021969;28;20036;-62
2021/01/19 03:56:54;;;;;;;26.00;12.23;;;;;;;-2.32;51.33;100702.28;5023459;28;20344;-65
2021/01/19 03:59:20;;;;;;;26.73;12.07;;;;;;;-2.30;50.83;100700.50;5023523;28;20045;-62
2021/01/19 04:01:47;;;;;;;22.63;11.40;;;;;;;-2.05;50.59;100700.44;5023161;28;20063;-62
2021/01/19 04:04:12;;;;;;;21.37;11.60;;;;;;;-1.97;50.63;100704.44;5023397;28;20030;-62
2021/01/19 04:06:38;;;;;;;28.43;12.40;;;;;;;-1.88;50.66;100704.97;5023412;28;20089;-62
2021/01/19 04:09:03;;;;;;;31.70;13.37;;;;;;;-1.92;50.69;100714.63;5022962;28;20238;-62
2021/01/19 04:11:29;;;;;;;29.80;13.30;;;;;;;-1.76;50.27;100713.13;5023267;28;20090;-62
2021/01/19 04:13:54;;;;;;;35.47;14.03;;;;;;;-1.76;49.99;100717.47;5023423;28;20326;-65
2021/01/19 04:16:20;;;;;;;31.53;15.20;;;;;;;-1.70;49.68;100722.41;5022809;28;20030;-63
2021/01/19 04:18:46;;;;;;;33.63;14.27;;;;;;;-2.16;50.87;100710.34;5022963;28;20048;-65
2021/01/19 04:21:11;;;;;;;28.77;13.53;;;;;;;-2.02;50.95;100713.28;5022988;28;20036;-65
2021/01/19 04:23:37;;;;;;;32.77;14.13;;;;;;;-2.11;50.58;100722.25;5023259;28;20173;-62
2021/01/19 04:26:02;;;;;;;31.57;13.83;;;;;;;-2.28;51.07;100717.69;5022747;28;20026;-62
2021/01/19 04:28:28;;;;;;;35.30;15.20;;;;;;;-2.02;50.39;100718.47;5022899;28;20034;-62
2021/01/19 04:30:53;;;;;;;38.93;15.57;;;;;;;-2.15;51.06;100731.06;5022850;28;20026;-64
2021/01/19 04:33:19;;;;;;;36.00;15.30;;;;;;;-2.18;51.30;100725.13;5022928;28;20040;-66
2021/01/19 04:35:45;;;;;;;39.33;16.53;;;;;;;-2.11;50.88;100727.44;5024776;28;20279;-65
2021/01/19 04:38:10;;;;;;;46.13;16.63;;;;;;;-2.26;50.74;100728.84;5026992;28;20042;-62
2021/01/19 04:40:36;;;;;;;32.60;15.87;;;;;;;-2.21;51.09;100733.88;5025549;28;20026;-66
2021/01/19 04:43:04;;;;;;;35.43;15.60;;;;;;;-2.11;50.82;100727.44;5026960;28;20034;-62
2021/01/19 04:45:32;;;;;;;28.87;13.07;;;;;;;-2.29;51.69;100730.72;5026600;28;20240;-62
2021/01/19 04:47:58;;;;;;;24.23;11.47;;;;;;;-2.20;51.43;100730.38;5026824;28;20034;-62
2021/01/19 04:50:24;;;;;;;29.30;12.53;;;;;;;-2.02;50.83;100729.72;5026430;28;20040;-66
2021/01/19 04:52:53;;;;;;;27.37;12.00;;;;;;;-2.03;51.01;100743.59;5026531;28;20037;-65
2021/01/19 04:55:23;;;;;;;28.33;13.00;;;;;;;-1.91;49.99;100739.69;5026762;28;20044;-62
2021/01/19 04:58:15;;;;;;;24.10;12.10;;;;;;;-1.89;50.32;100742.22;5026544;28;20022;-62
2021/01/19 05:00:52;;;;;;;37.17;13.93;;;;;;;-1.86;50.69;100744.69;5026441;28;20033;-62
2021/01/19 05:03:30;;;;;;;31.33;14.03;;;;;;;-1.90;50.75;100746.56;5026526;28;20045;-66
2021/01/19 05:05:58;;;;;;;30.60;12.93;;;;;;;-1.77;50.61;100749.53;5026396;28;20028;-62
2021/01/19 05:08:50;;;;;;;30.20;13.80;;;;;;;-1.71;50.41;100746.69;5026605;28;20113;-62
2021/01/19 05:11:25;;;;;;;36.07;14.93;;;;;;;-1.87;51.18;100743.84;5026079;28;20022;-66
2021/01/19 05:13:56;;;;;;;49.43;16.67;;;;;;;-2.02;51.59;100744.44;5026538;28;20059;-62
2021/01/19 05:16:29;;;;;;;35.77;16.27;;;;;;;-1.89;51.64;100750.00;5026318;28;20014;-62
2021/01/19 05:18:55;;;;;;;31.00;14.40;;;;;;;-1.90;51.56;100750.91;5026090;28;20116;-66
2021/01/19 05:21:21;;;;;;;37.73;14.67;;;;;;;-1.66;50.58;100750.81;5025930;28;20047;-65
2021/01/19 05:23:47;;;;;;;30.57;13.80;;;;;;;-1.84;51.25;100758.47;5026320;28;20037;-65
2021/01/19 05:26:15;;;;;;;30.47;11.93;;;;;;;-1.93;51.05;100759.66;5025838;28;20089;-62
2021/01/19 05:28:43;;;;;;;31.23;12.33;;;;;;;-2.27;51.79;100763.47;5025888;28;20042;-65
2021/01/19 05:31:14;;;;;;;28.60;12.10;;;;;;;-2.01;51.64;100766.88;5025861;28;20057;-65
2021/01/19 05:33:54;;;;;;;31.60;14.50;;;;;;;-2.02;51.08;100754.81;5026075;28;20088;-62
2021/01/19 05:36:39;;;;;;;32.03;13.57;;;;;;;-1.87;50.94;100754.22;5025817;28;20276;-62
2021/01/19 05:39:27;;;;;;;36.17;14.23;;;;;;;-2.25;51.82;100753.06;5025824;28;20057;-66
2021/01/19 05:41:53;;;;;;;39.70;14.60;;;;;;;-2.10;51.06;100747.28;5025554;28;20037;-65
2021/01/19 05:44:29;;;;;;;50.17;20.37;;;;;;;-1.97;51.19;100750.31;5024570;28;20034;-62
2021/01/19 05:46:55;;;;;;;45.57;20.40;;;;;;;-2.03;51.27;100753.97;5025188;28;20021;-66
2021/01/19 05:49:23;;;;;;;50.33;20.03;;;;;;;-2.21;51.36;100754.63;5024361;28;20262;-62
2021/01/19 05:51:53;;;;;;;40.47;18.67;;;;;;;-2.05;50.93;100760.13;5025374;28;20022;-62
2021/01/19 05:54:30;;;;;;;36.20;16.53;;;;;;;-2.06;51.28;100764.47;5025770;28;20353;-65
2021/01/19 05:57:21;;;;;;;38.43;15.70;;;;;;;-2.08;51.37;100757.63;5025463;28;20319;-65
2021/01/19 05:59:57;;;;;;;56.60;15.53;;;;;;;-2.23;51.76;100765.97;5025750;28;20054;-63
2021/01/19 06:02:35;;;;;;;27.70;11.77;;;;;;;-2.20;51.19;100763.25;5025480;28;20056;-62
2021/01/19 06:05:07;;;;;;;30.80;12.60;;;;;;;-2.13;51.61;100762.13;5025232;28;20088;-62
2021/01/19 06:07:34;;;;;;;35.60;12.07;;;;;;;-1.98;50.96;100765.03;5025533;28;20018;-62
2021/01/19 06:10:07;;;;;;;28.70;11.97;;;;;;;-1.92;50.53;100765.69;5025219;28;20044;-62
2021/01/19 06:12:34;;;;;;;25.98;11.60;;;;;;;-2.27;51.87;100766.09;5025201;28;20030;-65
2021/01/19 06:15:00;;;;;;;35.43;13.40;;;;;;;-2.14;51.81;100771.66;5025050;28;20061;-63
2021/01/19 06:17:25;;;;;;;33.13;13.20;;;;;;;-2.14;51.84;100779.44;5025026;28;20312;-65
2021/01/19 06:19:52;;;;;;;27.50;11.73;;;;;;;-2.03;51.43;100776.47;5024710;28;20339;-65
2021/01/19 06:22:23;;;;;;;27.13;12.47;;;;;;;-2.32;51.24;100775.78;5024856;28;20026;-62
2021/01/19 06:24:50;;;;;;;22.00;11.37;;;;;;;-2.27;51.41;100768.66;5024709;28;20227;-66
2021/01/19 06:27:25;;;;;;;25.37;12.17;;;;;;;-2.24;51.30;100780.69;5024914;28;20026;-65
2021/01/19 06:29:51;;;;;;;26.50;11.40;;;;;;;-2.06;50.47;100784.38;5025127;28;20075;-65
2021/01/19 06:32:18;;;;;;;23.73;11.00;;;;;;;-2.19;51.71;100777.94;5024677;28;20045;-62
2021/01/19 06:34:44;;;;;;;26.23;12.17;;;;;;;-2.12;51.39;100780.22;5025076;28;20033;-65
2021/01/19 06:37:23;;;;;;;27.53;12.30;;;;;;;-2.21;50.85;100783.16;5024732;28;20036;-66
2021/01/19 06:40:01;;;;;;;30.40;11.57;;;;;;;-2.00;50.63;100789.34;5025036;28;20224;-63
2021/01/19 06:42:29;;;;;;;29.67;12.07;;;;;;;-1.99;50.40;100789.28;5024955;28;20034;-62
2021/01/19 06:44:58;;;;;;;29.60;12.27;;;;;;;-2.08;50.52;100776.66;5024844;28;20038;-65
2021/01/19 06:47:24;;;;;;;29.60;12.53;;;;;;;-1.95;50.98;100787.44;5024539;28;20272;-65
2021/01/19 06:49:51;;;;;;;27.63;12.47;;;;;;;-1.87;50.09;100774.16;5024631;28;20046;-65
2021/01/19 06:52:18;;;;;;;22.37;10.17;;;;;;;-1.82;49.83;100791.25;5024302;28;20096;-65
2021/01/19 06:54:46;;;;;;;26.13;11.00;;;;;;;-1.74;50.25;100786.59;5024771;28;20038;-65
2021/01/19 06:57:31;;;;;;;24.43;11.57;;;;;;;-1.61;49.44;100779.19;5024355;28;20029;-62
2021/01/19 07:00:20;;;;;;;26.67;11.60;;;;;;;-1.49;48.97;100783.91;5023059;28;20025;-62
2021/01/19 07:02:48;;;;;;;28.73;10.83;;;;;;;-1.35;48.03;100784.19;5024477;28;20022;-65
2021/01/19 07:05:21;;;;;;;24.17;10.10;;;;;;;-1.38;47.93;100792.13;5024067;28;20060;-65
2021/01/19 07:08:29;;;;;;;26.63;11.88;;;;;;;-1.26;47.99;100795.97;5024140;28;20029;-63
2021/01/19 07:11:23;;;;;;;27.47;10.03;;;;;;;-1.24;47.97;100804.56;5023973;28;20121;-63
2021/01/19 07:13:49;;;;;;;27.70;11.55;;;;;;;-1.10;46.99;100799.66;5023455;28;20109;-65
2021/01/19 07:16:22;;;;;;;21.57;10.20;;;;;;;-1.02;47.06;100804.56;5022789;28;20042;-62
2021/01/19 07:18:51;;;;;;;25.30;9.65;;;;;;;-0.65;46.49;100809.06;5023914;28;20045;-62
2021/01/19 07:21:17;;;;;;;27.37;10.97;;;;;;;-0.66;45.93;100812.59;5023610;28;20140;-62
2021/01/19 07:23:46;;;;;;;25.60;11.03;;;;;;;-0.38;45.46;100809.63;5024150;28;20037;-62
2021/01/19 07:26:33;;;;;;;21.63;9.87;;;;;;;-0.26;44.47;100810.88;5023632;28;20101;-62
2021/01/19 07:28:59;;;;;;;17.10;8.50;;;;;;;-0.26;43.95;100805.66;5023907;28;20030;-62
2021/01/19 07:31:25;;;;;;;19.10;9.40;;;;;;;0.02;43.63;100802.69;5023737;28;20107;-62
2021/01/19 07:33:53;;;;;;;19.50;10.27;;;;;;;0.23;43.44;100820.78;5023881;28;20253;-62
2021/01/19 07:36:21;;;;;;;21.77;9.70;;;;;;;0.29;43.44;100828.31;5023816;28;20212;-62
2021/01/19 07:38:47;;;;;;;18.07;9.60;;;;;;;0.20;43.62;100822.69;5024135;28;20038;-65
2021/01/19 07:41:26;;;;;;;27.10;12.83;;;;;;;0.36;43.23;100821.06;5023364;28;20045;-65
2021/01/19 07:43:51;;;;;;;21.60;10.53;;;;;;;0.16;43.28;100823.75;5023855;28;20255;-68
2021/01/19 07:46:24;;;;;;;21.63;10.13;;;;;;;0.31;43.08;100818.69;5023331;28;20034;-68
2021/01/19 07:49:07;;;;;;;25.08;11.43;;;;;;;0.39;42.87;100813.13;5023625;28;20048;-64
2021/01/19 07:51:41;;;;;;;24.07;11.27;;;;;;;0.43;42.71;100817.25;5023473;28;20254;-68
2021/01/19 07:54:07;;;;;;;20.83;9.73;;;;;;;0.54;42.39;100817.59;5023604;28;20026;-68
2021/01/19 07:56:33;;;;;;;19.67;9.90;;;;;;;0.92;41.66;100823.59;5023269;28;20084;-64
2021/01/19 07:59:00;;;;;;;22.97;10.70;;;;;;;0.92;42.04;100825.34;5023437;28;20038;-64
2021/01/19 08:01:30;;;;;;;19.43;10.60;;;;;;;0.94;41.78;100824.34;5023446;28;20084;-65
2021/01/19 08:04:11;;;;;;;23.90;11.43;;;;;;;0.89;42.17;100823.75;5023376;28;20025;-65
2021/01/19 08:06:38;;;;;;;23.07;9.83;;;;;;;0.99;41.57;100831.13;5023214;28;20030;-68
2021/01/19 08:09:09;;;;;;;21.90;9.67;;;;;;;0.79;41.87;100829.47;5023353;28;20189;-68
2021/01/19 08:11:35;;;;;;;25.77;10.27;;;;;;;0.90;41.90;100832.41;5023244;28;20308;-68
2021/01/19 08:14:00;;;;;;;25.23;9.10;;;;;;;0.86;42.08;100833.47;5021964;28;20030;-68
2021/01/19 08:16:28;;;;;;;26.30;10.87;;;;;;;1.13;41.62;100836.53;5022990;28;20034;-68
2021/01/19 08:19:06;;;;;;;20.73;9.50;;;;;;;1.32;41.45;100839.06;5022826;28;20213;-68
2021/01/19 08:21:56;;;;;;;26.30;9.40;;;;;;;1.45;40.84;100842.75;5022800;28;20065;-68
2021/01/19 08:24:23;;;;;;;21.23;9.63;;;;;;;1.44;40.79;100849.75;5022634;28;20038;-68
2021/01/19 08:26:50;;;;;;;19.20;9.73;;;;;;;1.39;40.52;100838.69;5023140;28;20083;-65
2021/01/19 08:29:20;;;;;;;26.10;10.10;;;;;;;1.38;41.16;100849.19;5023010;28;20259;-64
2021/01/19 08:32:02;;;;;;;25.23;9.60;;;;;;;1.42;40.96;100848.97;5022960;28;20058;-68
2021/01/19 08:34:32;;;;;;;21.17;9.17;;;;;;;1.51;41.23;100851.13;5022616;28;20062;-64
2021/01/19 08:37:01;;;;;;;20.03;9.03;;;;;;;1.43;41.31;100849.81;5022881;28;20080;-64
2021/01/19 08:39:27;;;;;;;24.63;8.37;;;;;;;1.53;40.45;100851.03;5023012;28;20093;-68
2021/01/19 08:41:55;;;;;;;20.50;9.03;;;;;;;1.47;40.95;100848.75;5022867;28;20053;-65
2021/01/19 08:44:20;;;;;;;17.13;8.07;;;;;;;1.42;41.13;100854.19;5023022;28;20026;-65
2021/01/19 08:46:48;;;;;;;21.47;9.07;;;;;;;1.57;41.37;100848.19;5022705;28;20028;-68
2021/01/19 08:49:17;;;;;;;19.70;8.70;;;;;;;1.45;41.24;100847.97;5022885;28;20037;-66
2021/01/19 08:51:47;;;;;;;17.97;8.13;;;;;;;1.42;41.46;100838.53;5022659;28;20065;-64
2021/01/19 08:54:13;;;;;;;16.13;8.17;;;;;;;1.63;40.92;100839.22;5022846;28;20040;-68
2021/01/19 08:56:41;;;;;;;21.47;8.43;;;;;;;1.55;40.65;100843.97;5022897;28;20164;-64
2021/01/19 08:59:06;;;;;;;18.20;7.67;;;;;;;1.70;41.08;100837.13;5022924;28;20021;-64
2021/01/19 09:01:32;;;;;;;17.93;9.40;;;;;;;1.69;41.19;100822.38;5022527;28;20105;-65
2021/01/19 09:04:00;;;;;;;17.07;8.07;;;;;;;1.59;40.88;100833.31;5022845;28;20040;-65
2021/01/19 09:06:26;;;;;;;14.83;7.53;;;;;;;1.58;40.84;100836.00;5022542;28;20327;-65
2021/01/19 09:08:58;;;;;;;17.67;8.13;;;;;;;1.53;41.68;100828.41;5022830;28;20029;-68
2021/01/19 09:11:27;;;;;;;19.47;8.60;;;;;;;1.89;41.15;100832.63;5022456;28;20033;-65
2021/01/19 09:14:02;;;;;;;16.60;8.50;;;;;;;1.98;41.05;100826.09;5022755;28;20033;-68
2021/01/19 09:16:29;;;;;;;23.77;10.40;;;;;;;2.03;40.90;100826.69;5022516;28;20037;-68
2021/01/19 09:18:56;;;;;;;18.93;8.70;;;;;;;1.78;41.22;100817.53;5022128;28;20048;-68
2021/01/19 09:21:23;;;;;;;20.03;8.97;;;;;;;2.06;41.17;100809.06;5022153;28;20386;-65
2021/01/19 09:23:49;;;;;;;16.27;7.47;;;;;;;2.15;40.22;100819.06;5026091;28;20053;-65
2021/01/19 09:26:14;;;;;;;15.40;7.53;;;;;;;1.93;40.47;100814.09;5026199;28;20025;-66
2021/01/19 09:28:40;;;;;;;19.10;8.63;;;;;;;2.03;40.37;100797.94;5026161;28;20374;-64
2021/01/19 09:31:16;;;;;;;21.80;8.90;;;;;;;2.09;40.79;100808.94;5025879;28;20091;-65
2021/01/19 09:33:44;;;;;;;16.23;8.43;;;;;;;2.03;41.00;100800.56;5026261;28;20053;-68
2021/01/19 09:36:10;;;;;;;17.90;8.87;;;;;;;2.20;40.62;100796.16;5025998;28;20037;-68
2021/01/19 09:38:36;;;;;;;17.37;7.83;;;;;;;2.45;40.58;100800.88;5026092;28;20034;-65
2021/01/19 09:41:03;;;;;;;32.20;10.27;;;;;;;2.56;40.81;100790.66;5025649;28;20041;-68
2021/01/19 09:43:29;;;;;;;22.70;8.40;;;;;;;2.66;39.53;100774.44;5025685;28;20068;-66
2021/01/19 09:46:03;;;;;;;21.63;8.70;;;;;;;2.71;40.35;100782.88;5025580;28;20044;-62
2021/01/19 09:48:30;;;;;;;14.40;6.70;;;;;;;2.68;39.21;100778.66;5026055;28;20322;-66
2021/01/19 09:51:01;;;;;;;15.53;7.80;;;;;;;2.84;39.29;100769.03;5025255;28;20048;-62
2021/01/19 09:53:29;;;;;;;11.63;6.00;;;;;;;2.91;39.27;100781.75;5025472;28;20050;-66
2021/01/19 09:55:57;;;;;;;15.03;6.77;;;;;;;2.88;38.98;100765.28;5025583;28;20038;-66
2021/01/19 09:58:23;;;;;;;17.27;6.83;;;;;;;2.85;39.28;100762.00;5025703;28;20030;-62
2021/01/19 10:00:49;;;;;;;13.17;7.23;;;;;;;2.80;38.93;100762.28;5025598;28;20226;-66
2021/01/19 10:03:20;;;;;;;18.87;6.20;;;;;;;2.74;39.51;100762.63;5025420;28;20033;-66
2021/01/19 10:06:01;;;;;;;14.23;6.10;;;;;;;2.84;38.73;100758.56;5025250;28;20101;-62
2021/01/19 10:08:27;;;;;;;17.83;6.80;;;;;;;2.50;39.66;100758.78;5025502;28;20037;-68
2021/01/19 10:10:53;;;;;;;16.63;7.90;;;;;;;2.65;39.80;100757.94;5025290;28;20087;-65
2021/01/19 10:13:30;;;;;;;17.90;7.10;;;;;;;2.75;39.39;100745.16;5025729;28;20256;-68
2021/01/19 10:16:01;;;;;;;16.53;6.63;;;;;;;2.93;38.71;100753.72;5025047;28;20038;-65
2021/01/19 10:18:27;;;;;;;12.17;6.23;;;;;;;2.83;38.98;100746.41;5024963;28;20080;-68
2021/01/19 10:20:52;;;;;;;15.60;7.70;;;;;;;3.08;38.60;100748.44;5024770;28;20037;-65
2021/01/19 10:23:28;;;;;;;16.67;7.80;;;;;;;3.22;38.28;100741.59;5025045;28;20306;-65
2021/01/19 10:26:04;;;;;;;13.63;6.60;;;;;;;2.97;38.08;100740.38;5025075;28;20030;-65
2021/01/19 10:28:36;;;;;;;16.80;7.40;;;;;;;3.14;38.81;100729.78;5024926;28;20033;-66
2021/01/19 10:31:13;;;;;;;16.23;7.20;;;;;;;3.06;38.22;100723.28;5025033;28;20033;-63
2021/01/19 10:33:55;;;;;;;37.40;8.97;;;;;;;3.06;39.03;100718.91;5024804;28;20041;-62
2021/01/19 10:36:21;;;;;;;16.13;7.40;;;;;;;3.27;37.82;100722.06;5025286;28;20096;-62
2021/01/19 10:38:50;;;;;;;17.10;8.23;;;;;;;3.23;37.51;100701.38;5024743;28;20350;-66
2021/01/19 10:41:29;;;;;;;20.43;8.37;;;;;;;3.13;38.20;100707.19;5024473;28;20042;-63
2021/01/19 10:43:55;;;;;;;17.93;7.63;;;;;;;3.06;38.13;100705.81;5024905;28;20033;-66
2021/01/19 10:46:23;;;;;;;15.97;7.80;;;;;;;3.10;38.39;100701.25;5023283;28;20049;-62
2021/01/19 10:49:10;;;;;;;13.93;7.80;;;;;;;3.12;38.03;100700.25;5024631;28;20061;-62
2021/01/19 10:51:36;;;;;;;18.13;8.10;;;;;;;3.00;38.30;100687.88;5024507;28;20025;-66
2021/01/19 10:54:13;;;;;;;17.73;8.30;;;;;;;3.10;38.36;100686.38;5024670;28;20030;-62
2021/01/19 10:56:41;;;;;;;19.77;7.73;;;;;;;3.12;38.25;100668.84;5024673;28;20034;-66
2021/01/19 10:59:07;;;;;;;14.43;7.47;;;;;;;3.23;38.78;100672.59;5023232;28;20037;-62
2021/01/19 11:01:34;;;;;;;19.03;8.23;;;;;;;3.26;38.71;100668.03;5024509;28;20072;-66
2021/01/19 11:04:00;;;;;;;14.77;7.23;;;;;;;3.36;38.10;100670.91;5023065;28;20328;-66
2021/01/19 11:06:30;;;;;;;17.30;8.50;;;;;;;3.27;38.37;100664.47;5024237;28;20040;-62
2021/01/19 11:08:56;;;;;;;21.03;8.63;;;;;;;3.38;39.53;100656.81;5024380;28;20037;-66
2021/01/19 11:11:21;;;;;;;18.80;7.77;;;;;;;3.39;39.04;100652.41;5023916;28;20248;-62
2021/01/19 11:13:47;;;;;;;16.23;7.83;;;;;;;3.48;39.02;100642.22;5024253;28;20042;-66
2021/01/19 11:16:12;;;;;;;35.00;12.90;;;;;;;3.52;38.80;100637.63;5023880;28;20038;-62
2021/01/19 11:18:38;;;;;;;17.03;7.60;;;;;;;3.46;39.15;100651.94;5023813;28;20045;-66
2021/01/19 11:21:04;;;;;;;15.03;7.10;;;;;;;3.47;38.53;100639.69;5024205;28;20089;-66
2021/01/19 11:23:30;;;;;;;19.17;7.77;;;;;;;3.56;39.13;100644.34;5024094;28;20091;-66
2021/01/19 11:25:55;;;;;;;16.37;7.40;;;;;;;3.62;39.03;100638.72;5023685;28;20315;-62